sensor_id;sensor_type;location;lat;lon;timestamp;P1;durP1;ratioP1;P2;durP2;ratioP2
5414;SDS011;2730;51.512;7.504;2023-02-28T00:01:06;8.13;;;3.55;;
5414;SDS011;2730;51.512;7.504;2023-02-28T00:03:33;4.50;;;3.55;;
5414;SDS011;2730;51.512;7.504;2023-02-28T00:06:01;4.80;;;2.53;;
5414;SDS011;2730;51.512;7.504;2023-02-28T00:08:28;3.42;;;3.00;;
5414;SDS011;2730;51.512;7.504;2023-02-28T00:10:55;4.63;;;3.03;;
5414;SDS011;2730;51.512;7.504;2023-02-28T00:13:23;4.97;;;2.60;;
5414;SDS011;2730;51.512;7.504;2023-02-28T00:15:58;4.03;;;2.70;;
5414;SDS011;2730;51.512;7.504;2023-02-28T00:18:26;5.13;;;3.03;;
5414;SDS011;2730;51.512;7.504;2023-02-28T00:20:53;10.50;;;3.38;;
5414;SDS011;2730;51.512;7.504;2023-02-28T00:23:19;4.25;;;2.95;;
5414;SDS011;2730;51.512;7.504;2023-02-28T00:25:46;7.35;;;3.13;;
5414;SDS011;2730;51.512;7.504;2023-02-28T00:28:13;3.15;;;2.33;;
5414;SDS011;2730;51.512;7.504;2023-02-28T00:30:41;3.05;;;2.75;;
5414;SDS011;2730;51.512;7.504;2023-02-28T00:33:08;4.80;;;2.53;;
5414;SDS011;2730;51.512;7.504;2023-02-28T00:35:35;2.95;;;2.28;;
5414;SDS011;2730;51.512;7.504;2023-02-28T00:38:02;5.38;;;2.30;;
5414;SDS011;2730;51.512;7.504;2023-02-28T00:40:29;3.58;;;2.38;;
5414;SDS011;2730;51.512;7.504;2023-02-28T00:42:55;9.90;;;2.42;;
5414;SDS011;2730;51.512;7.504;2023-02-28T00:45:22;10.00;;;2.13;;
5414;SDS011;2730;51.512;7.504;2023-02-28T00:47:50;3.45;;;2.40;;
5414;SDS011;2730;51.512;7.504;2023-02-28T00:50:17;4.75;;;2.47;;
5414;SDS011;2730;51.512;7.504;2023-02-28T00:52:45;6.40;;;2.53;;
5414;SDS011;2730;51.512;7.504;2023-02-28T00:55:12;3.75;;;2.63;;
5414;SDS011;2730;51.512;7.504;2023-02-28T00:57:38;2.22;;;2.08;;
5414;SDS011;2730;51.512;7.504;2023-02-28T01:00:06;2.92;;;2.60;;
5414;SDS011;2730;51.512;7.504;2023-02-28T01:02:34;5.82;;;2.97;;
5414;SDS011;2730;51.512;7.504;2023-02-28T01:05:02;3.88;;;2.67;;
5414;SDS011;2730;51.512;7.504;2023-02-28T01:07:29;4.63;;;3.05;;
5414;SDS011;2730;51.512;7.504;2023-02-28T01:09:56;4.80;;;3.53;;
5414;SDS011;2730;51.512;7.504;2023-02-28T01:12:23;5.20;;;2.83;;
5414;SDS011;2730;51.512;7.504;2023-02-28T01:14:50;4.30;;;3.28;;
5414;SDS011;2730;51.512;7.504;2023-02-28T01:17:16;17.23;;;2.80;;
5414;SDS011;2730;51.512;7.504;2023-02-28T01:19:43;3.38;;;2.70;;
5414;SDS011;2730;51.512;7.504;2023-02-28T01:22:11;6.88;;;2.67;;
5414;SDS011;2730;51.512;7.504;2023-02-28T01:24:38;4.07;;;2.80;;
5414;SDS011;2730;51.512;7.504;2023-02-28T01:27:05;4.90;;;2.70;;
5414;SDS011;2730;51.512;7.504;2023-02-28T01:29:32;7.80;;;2.70;;
5414;SDS011;2730;51.512;7.504;2023-02-28T01:31:58;3.97;;;2.45;;
5414;SDS011;2730;51.512;7.504;2023-02-28T01:34:25;6.88;;;2.63;;
5414;SDS011;2730;51.512;7.504;2023-02-28T01:36:52;4.95;;;3.13;;
5414;SDS011;2730;51.512;7.504;2023-02-28T01:39:20;4.43;;;2.88;;
5414;SDS011;2730;51.512;7.504;2023-02-28T01:41:47;2.95;;;2.75;;
5414;SDS011;2730;51.512;7.504;2023-02-28T01:47:18;4.75;;;2.58;;
5414;SDS011;2730;51.512;7.504;2023-02-28T01:49:45;4.00;;;2.80;;
5414;SDS011;2730;51.512;7.504;2023-02-28T01:52:13;4.95;;;2.80;;
5414;SDS011;2730;51.512;7.504;2023-02-28T01:54:44;4.32;;;3.30;;
5414;SDS011;2730;51.512;7.504;2023-02-28T01:57:14;3.75;;;2.80;;
5414;SDS011;2730;51.512;7.504;2023-02-28T01:59:46;11.95;;;2.60;;
5414;SDS011;2730;51.512;7.504;2023-02-28T02:02:18;4.93;;;2.80;;
5414;SDS011;2730;51.512;7.504;2023-02-28T02:04:50;11.98;;;3.33;;
5414;SDS011;2730;51.512;7.504;2023-02-28T02:07:19;2.70;;;2.50;;
5414;SDS011;2730;51.512;7.504;2023-02-28T02:09:48;8.50;;;2.45;;
5414;SDS011;2730;51.512;7.504;2023-02-28T02:12:19;4.80;;;3.25;;
5414;SDS011;2730;51.512;7.504;2023-02-28T02:14:56;3.63;;;3.13;;
5414;SDS011;2730;51.512;7.504;2023-02-28T02:17:30;3.97;;;2.35;;
5414;SDS011;2730;51.512;7.504;2023-02-28T02:23:22;3.00;;;2.70;;
5414;SDS011;2730;51.512;7.504;2023-02-28T02:26:01;8.90;;;2.60;;
5414;SDS011;2730;51.512;7.504;2023-02-28T02:29:03;2.53;;;2.35;;
5414;SDS011;2730;51.512;7.504;2023-02-28T02:35:02;5.55;;;2.53;;
5414;SDS011;2730;51.512;7.504;2023-02-28T02:37:39;3.60;;;2.72;;
5414;SDS011;2730;51.512;7.504;2023-02-28T02:40:10;2.83;;;2.17;;
5414;SDS011;2730;51.512;7.504;2023-02-28T02:42:42;3.28;;;2.80;;
5414;SDS011;2730;51.512;7.504;2023-02-28T02:45:17;2.90;;;2.70;;
5414;SDS011;2730;51.512;7.504;2023-02-28T02:47:48;8.35;;;2.90;;
5414;SDS011;2730;51.512;7.504;2023-02-28T02:50:19;5.55;;;3.05;;
5414;SDS011;2730;51.512;7.504;2023-02-28T02:52:51;3.30;;;3.00;;
5414;SDS011;2730;51.512;7.504;2023-02-28T02:55:21;3.63;;;2.92;;
5414;SDS011;2730;51.512;7.504;2023-02-28T02:57:49;3.83;;;2.25;;
5414;SDS011;2730;51.512;7.504;2023-02-28T03:00:20;7.07;;;2.80;;
5414;SDS011;2730;51.512;7.504;2023-02-28T03:02:49;3.13;;;2.88;;
5414;SDS011;2730;51.512;7.504;2023-02-28T03:05:21;6.00;;;2.72;;
5414;SDS011;2730;51.512;7.504;2023-02-28T03:07:52;3.03;;;2.47;;
5414;SDS011;2730;51.512;7.504;2023-02-28T03:10:28;5.90;;;3.20;;
5414;SDS011;2730;51.512;7.504;2023-02-28T03:13:00;4.43;;;2.33;;
5414;SDS011;2730;51.512;7.504;2023-02-28T03:15:53;2.95;;;2.63;;
5414;SDS011;2730;51.512;7.504;2023-02-28T03:18:34;3.58;;;2.90;;
5414;SDS011;2730;51.512;7.504;2023-02-28T03:21:09;2.65;;;2.45;;
5414;SDS011;2730;51.512;7.504;2023-02-28T03:23:45;3.83;;;2.35;;
5414;SDS011;2730;51.512;7.504;2023-02-28T03:26:20;6.25;;;2.83;;
5414;SDS011;2730;51.512;7.504;2023-02-28T03:28:51;2.90;;;2.00;;
5414;SDS011;2730;51.512;7.504;2023-02-28T03:31:24;11.60;;;2.25;;
5414;SDS011;2730;51.512;7.504;2023-02-28T03:33:58;3.70;;;2.30;;
5414;SDS011;2730;51.512;7.504;2023-02-28T03:36:30;3.30;;;2.97;;
5414;SDS011;2730;51.512;7.504;2023-02-28T03:39:09;2.75;;;2.10;;
5414;SDS011;2730;51.512;7.504;2023-02-28T03:41:41;2.88;;;2.45;;
5414;SDS011;2730;51.512;7.504;2023-02-28T03:44:14;3.55;;;3.15;;
5414;SDS011;2730;51.512;7.504;2023-02-28T03:46:45;2.20;;;2.10;;
5414;SDS011;2730;51.512;7.504;2023-02-28T03:49:17;3.13;;;2.20;;
5414;SDS011;2730;51.512;7.504;2023-02-28T03:51:50;4.28;;;2.33;;
5414;SDS011;2730;51.512;7.504;2023-02-28T03:54:20;2.00;;;1.80;;
5414;SDS011;2730;51.512;7.504;2023-02-28T03:56:52;3.08;;;2.15;;
5414;SDS011;2730;51.512;7.504;2023-02-28T03:59:27;5.43;;;2.30;;
5414;SDS011;2730;51.512;7.504;2023-02-28T04:01:58;3.72;;;2.47;;
5414;SDS011;2730;51.512;7.504;2023-02-28T04:04:25;5.70;;;2.25;;
5414;SDS011;2730;51.512;7.504;2023-02-28T04:07:00;6.10;;;2.78;;
5414;SDS011;2730;51.512;7.504;2023-02-28T04:09:29;4.20;;;3.08;;
5414;SDS011;2730;51.512;7.504;2023-02-28T04:11:56;3.65;;;2.55;;
5414;SDS011;2730;51.512;7.504;2023-02-28T04:14:23;4.10;;;2.95;;
5414;SDS011;2730;51.512;7.504;2023-02-28T04:16:49;5.82;;;2.75;;
5414;SDS011;2730;51.512;7.504;2023-02-28T04:19:17;3.00;;;2.75;;
5414;SDS011;2730;51.512;7.504;2023-02-28T04:21:45;5.22;;;2.88;;
5414;SDS011;2730;51.512;7.504;2023-02-28T04:24:15;3.35;;;3.05;;
5414;SDS011;2730;51.512;7.504;2023-02-28T04:26:44;8.40;;;3.05;;
5414;SDS011;2730;51.512;7.504;2023-02-28T04:29:13;3.53;;;3.00;;
5414;SDS011;2730;51.512;7.504;2023-02-28T04:31:44;2.90;;;2.65;;
5414;SDS011;2730;51.512;7.504;2023-02-28T04:34:11;3.53;;;3.22;;
5414;SDS011;2730;51.512;7.504;2023-02-28T04:36:37;3.92;;;3.40;;
5414;SDS011;2730;51.512;7.504;2023-02-28T04:39:04;6.90;;;3.92;;
5414;SDS011;2730;51.512;7.504;2023-02-28T04:41:32;6.60;;;3.58;;
5414;SDS011;2730;51.512;7.504;2023-02-28T04:43:59;4.70;;;3.40;;
5414;SDS011;2730;51.512;7.504;2023-02-28T04:46:26;2.88;;;2.58;;
5414;SDS011;2730;51.512;7.504;2023-02-28T04:48:53;3.75;;;3.40;;
5414;SDS011;2730;51.512;7.504;2023-02-28T04:51:19;5.88;;;3.03;;
5414;SDS011;2730;51.512;7.504;2023-02-28T04:53:46;7.55;;;3.72;;
5414;SDS011;2730;51.512;7.504;2023-02-28T04:56:14;4.07;;;3.13;;
5414;SDS011;2730;51.512;7.504;2023-02-28T04:58:43;6.75;;;3.30;;
5414;SDS011;2730;51.512;7.504;2023-02-28T05:01:21;3.55;;;2.67;;
5414;SDS011;2730;51.512;7.504;2023-02-28T05:03:50;6.20;;;3.72;;
5414;SDS011;2730;51.512;7.504;2023-02-28T05:06:18;5.68;;;3.53;;
5414;SDS011;2730;51.512;7.504;2023-02-28T05:08:46;4.68;;;3.50;;
5414;SDS011;2730;51.512;7.504;2023-02-28T05:11:14;5.57;;;4.35;;
5414;SDS011;2730;51.512;7.504;2023-02-28T05:13:45;6.63;;;3.90;;
5414;SDS011;2730;51.512;7.504;2023-02-28T05:16:12;4.20;;;3.28;;
5414;SDS011;2730;51.512;7.504;2023-02-28T05:18:39;6.30;;;3.70;;
5414;SDS011;2730;51.512;7.504;2023-02-28T05:21:06;8.55;;;3.88;;
5414;SDS011;2730;51.512;7.504;2023-02-28T05:23:49;3.63;;;3.30;;
5414;SDS011;2730;51.512;7.504;2023-02-28T05:26:17;8.52;;;3.83;;
5414;SDS011;2730;51.512;7.504;2023-02-28T05:28:45;6.85;;;3.80;;
5414;SDS011;2730;51.512;7.504;2023-02-28T05:31:12;5.38;;;3.30;;
5414;SDS011;2730;51.512;7.504;2023-02-28T05:33:39;6.20;;;3.03;;
5414;SDS011;2730;51.512;7.504;2023-02-28T05:36:06;6.22;;;3.60;;
5414;SDS011;2730;51.512;7.504;2023-02-28T05:38:33;5.28;;;3.45;;
5414;SDS011;2730;51.512;7.504;2023-02-28T05:41:00;5.63;;;3.45;;
5414;SDS011;2730;51.512;7.504;2023-02-28T05:43:30;3.88;;;3.03;;
5414;SDS011;2730;51.512;7.504;2023-02-28T05:45:58;8.32;;;3.60;;
5414;SDS011;2730;51.512;7.504;2023-02-28T05:48:25;5.72;;;2.83;;
5414;SDS011;2730;51.512;7.504;2023-02-28T05:50:52;4.97;;;2.80;;
5414;SDS011;2730;51.512;7.504;2023-02-28T05:53:19;2.70;;;2.60;;
5414;SDS011;2730;51.512;7.504;2023-02-28T05:55:45;6.57;;;3.22;;
5414;SDS011;2730;51.512;7.504;2023-02-28T05:58:12;8.00;;;3.25;;
5414;SDS011;2730;51.512;7.504;2023-02-28T06:00:39;2.83;;;2.58;;
5414;SDS011;2730;51.512;7.504;2023-02-28T06:03:07;4.15;;;3.75;;
5414;SDS011;2730;51.512;7.504;2023-02-28T06:05:34;12.27;;;2.55;;
5414;SDS011;2730;51.512;7.504;2023-02-28T06:08:00;2.88;;;2.67;;
5414;SDS011;2730;51.512;7.504;2023-02-28T06:10:27;2.85;;;2.55;;
5414;SDS011;2730;51.512;7.504;2023-02-28T06:12:54;4.03;;;3.70;;
5414;SDS011;2730;51.512;7.504;2023-02-28T06:15:21;3.60;;;3.08;;
5414;SDS011;2730;51.512;7.504;2023-02-28T06:17:47;3.60;;;2.92;;
5414;SDS011;2730;51.512;7.504;2023-02-28T06:20:16;5.35;;;2.88;;
5414;SDS011;2730;51.512;7.504;2023-02-28T06:22:43;5.40;;;2.95;;
5414;SDS011;2730;51.512;7.504;2023-02-28T06:25:09;3.05;;;2.45;;
5414;SDS011;2730;51.512;7.504;2023-02-28T06:27:36;3.10;;;2.90;;
5414;SDS011;2730;51.512;7.504;2023-02-28T06:30:04;4.43;;;2.60;;
5414;SDS011;2730;51.512;7.504;2023-02-28T06:32:31;5.20;;;2.60;;
5414;SDS011;2730;51.512;7.504;2023-02-28T06:34:58;6.55;;;3.17;;
5414;SDS011;2730;51.512;7.504;2023-02-28T06:37:26;4.30;;;3.40;;
5414;SDS011;2730;51.512;7.504;2023-02-28T06:39:53;6.15;;;3.05;;
5414;SDS011;2730;51.512;7.504;2023-02-28T06:42:21;7.57;;;3.42;;
5414;SDS011;2730;51.512;7.504;2023-02-28T06:44:49;12.98;;;3.45;;
5414;SDS011;2730;51.512;7.504;2023-02-28T06:47:16;5.53;;;3.00;;
5414;SDS011;2730;51.512;7.504;2023-02-28T06:49:43;5.68;;;3.90;;
5414;SDS011;2730;51.512;7.504;2023-02-28T06:52:10;6.70;;;2.90;;
5414;SDS011;2730;51.512;7.504;2023-02-28T06:54:38;4.82;;;2.70;;
5414;SDS011;2730;51.512;7.504;2023-02-28T06:57:05;3.55;;;3.15;;
5414;SDS011;2730;51.512;7.504;2023-02-28T06:59:32;8.68;;;3.60;;
5414;SDS011;2730;51.512;7.504;2023-02-28T07:02:00;6.75;;;2.63;;
5414;SDS011;2730;51.512;7.504;2023-02-28T07:04:27;4.75;;;3.00;;
5414;SDS011;2730;51.512;7.504;2023-02-28T07:06:54;5.05;;;2.80;;
5414;SDS011;2730;51.512;7.504;2023-02-28T07:09:22;4.85;;;2.30;;
5414;SDS011;2730;51.512;7.504;2023-02-28T07:11:56;4.07;;;2.55;;
5414;SDS011;2730;51.512;7.504;2023-02-28T07:14:22;9.23;;;2.85;;
5414;SDS011;2730;51.512;7.504;2023-02-28T07:16:49;7.20;;;3.33;;
5414;SDS011;2730;51.512;7.504;2023-02-28T07:19:16;6.47;;;2.50;;
5414;SDS011;2730;51.512;7.504;2023-02-28T07:21:43;7.00;;;3.50;;
5414;SDS011;2730;51.512;7.504;2023-02-28T07:24:10;4.63;;;2.75;;
5414;SDS011;2730;51.512;7.504;2023-02-28T07:26:36;4.80;;;3.25;;
5414;SDS011;2730;51.512;7.504;2023-02-28T07:29:05;4.38;;;2.80;;
5414;SDS011;2730;51.512;7.504;2023-02-28T07:31:31;6.15;;;2.55;;
5414;SDS011;2730;51.512;7.504;2023-02-28T07:33:58;4.57;;;3.10;;
5414;SDS011;2730;51.512;7.504;2023-02-28T07:36:25;3.63;;;2.47;;
5414;SDS011;2730;51.512;7.504;2023-02-28T07:38:52;3.33;;;2.20;;
5414;SDS011;2730;51.512;7.504;2023-02-28T07:41:19;3.17;;;2.40;;
5414;SDS011;2730;51.512;7.504;2023-02-28T07:43:48;2.90;;;2.70;;
5414;SDS011;2730;51.512;7.504;2023-02-28T07:46:16;3.08;;;1.98;;
5414;SDS011;2730;51.512;7.504;2023-02-28T07:48:45;2.17;;;2.08;;
5414;SDS011;2730;51.512;7.504;2023-02-28T07:51:12;3.05;;;2.30;;
5414;SDS011;2730;51.512;7.504;2023-02-28T07:53:39;3.28;;;2.30;;
5414;SDS011;2730;51.512;7.504;2023-02-28T07:56:06;3.00;;;2.38;;
5414;SDS011;2730;51.512;7.504;2023-02-28T07:58:33;3.72;;;2.60;;
5414;SDS011;2730;51.512;7.504;2023-02-28T08:01:04;4.03;;;2.20;;
5414;SDS011;2730;51.512;7.504;2023-02-28T08:03:33;5.95;;;2.90;;
5414;SDS011;2730;51.512;7.504;2023-02-28T08:06:00;3.30;;;2.55;;
5414;SDS011;2730;51.512;7.504;2023-02-28T08:08:28;3.83;;;3.17;;
5414;SDS011;2730;51.512;7.504;2023-02-28T08:10:57;3.60;;;3.30;;
5414;SDS011;2730;51.512;7.504;2023-02-28T08:13:24;6.80;;;3.40;;
5414;SDS011;2730;51.512;7.504;2023-02-28T08:15:52;5.50;;;3.42;;
5414;SDS011;2730;51.512;7.504;2023-02-28T08:18:19;8.90;;;3.65;;
5414;SDS011;2730;51.512;7.504;2023-02-28T08:20:47;6.35;;;3.10;;
5414;SDS011;2730;51.512;7.504;2023-02-28T08:23:13;5.32;;;3.15;;
5414;SDS011;2730;51.512;7.504;2023-02-28T08:25:40;4.65;;;2.95;;
5414;SDS011;2730;51.512;7.504;2023-02-28T08:28:07;6.57;;;3.47;;
5414;SDS011;2730;51.512;7.504;2023-02-28T08:30:34;3.03;;;2.53;;
5414;SDS011;2730;51.512;7.504;2023-02-28T08:33:01;6.18;;;3.35;;
5414;SDS011;2730;51.512;7.504;2023-02-28T08:35:27;7.85;;;3.40;;
5414;SDS011;2730;51.512;7.504;2023-02-28T08:37:56;3.00;;;2.70;;
5414;SDS011;2730;51.512;7.504;2023-02-28T08:40:23;3.08;;;2.83;;
5414;SDS011;2730;51.512;7.504;2023-02-28T08:42:50;3.33;;;2.50;;
5414;SDS011;2730;51.512;7.504;2023-02-28T08:45:16;5.18;;;2.92;;
5414;SDS011;2730;51.512;7.504;2023-02-28T08:47:43;2.05;;;1.90;;
5414;SDS011;2730;51.512;7.504;2023-02-28T08:50:10;2.42;;;2.20;;
5414;SDS011;2730;51.512;7.504;2023-02-28T08:52:40;2.75;;;2.38;;
5414;SDS011;2730;51.512;7.504;2023-02-28T08:55:10;2.25;;;2.15;;
5414;SDS011;2730;51.512;7.504;2023-02-28T08:57:37;1.90;;;1.80;;
5414;SDS011;2730;51.512;7.504;2023-02-28T09:00:04;6.70;;;2.50;;
5414;SDS011;2730;51.512;7.504;2023-02-28T09:02:33;15.23;;;2.60;;
5414;SDS011;2730;51.512;7.504;2023-02-28T09:05:00;7.05;;;2.15;;
5414;SDS011;2730;51.512;7.504;2023-02-28T09:07:26;3.58;;;2.70;;
5414;SDS011;2730;51.512;7.504;2023-02-28T09:09:53;3.05;;;2.50;;
5414;SDS011;2730;51.512;7.504;2023-02-28T09:12:22;3.53;;;2.40;;
5414;SDS011;2730;51.512;7.504;2023-02-28T09:14:49;1.85;;;1.75;;
5414;SDS011;2730;51.512;7.504;2023-02-28T09:17:16;3.05;;;2.10;;
5414;SDS011;2730;51.512;7.504;2023-02-28T09:19:43;2.42;;;2.05;;
5414;SDS011;2730;51.512;7.504;2023-02-28T09:22:10;2.22;;;2.00;;
5414;SDS011;2730;51.512;7.504;2023-02-28T09:24:37;2.28;;;2.05;;
5414;SDS011;2730;51.512;7.504;2023-02-28T09:27:04;3.15;;;1.90;;
5414;SDS011;2730;51.512;7.504;2023-02-28T09:29:33;2.45;;;2.20;;
5414;SDS011;2730;51.512;7.504;2023-02-28T09:32:00;7.25;;;2.45;;
5414;SDS011;2730;51.512;7.504;2023-02-28T09:34:27;2.33;;;2.15;;
5414;SDS011;2730;51.512;7.504;2023-02-28T09:36:55;10.02;;;2.67;;
5414;SDS011;2730;51.512;7.504;2023-02-28T09:39:22;2.00;;;1.90;;
5414;SDS011;2730;51.512;7.504;2023-02-28T09:41:52;4.90;;;2.33;;
5414;SDS011;2730;51.512;7.504;2023-02-28T09:44:21;3.88;;;2.25;;
5414;SDS011;2730;51.512;7.504;2023-02-28T09:46:55;4.13;;;2.00;;
5414;SDS011;2730;51.512;7.504;2023-02-28T09:49:27;1.88;;;1.75;;
5414;SDS011;2730;51.512;7.504;2023-02-28T09:52:01;2.15;;;2.00;;
5414;SDS011;2730;51.512;7.504;2023-02-28T09:54:31;3.45;;;2.00;;
5414;SDS011;2730;51.512;7.504;2023-02-28T09:56:59;1.73;;;1.63;;
5414;SDS011;2730;51.512;7.504;2023-02-28T09:59:42;2.38;;;1.60;;
5414;SDS011;2730;51.512;7.504;2023-02-28T10:02:31;1.85;;;1.60;;
5414;SDS011;2730;51.512;7.504;2023-02-28T10:05:28;3.05;;;1.90;;
5414;SDS011;2730;51.512;7.504;2023-02-28T10:08:01;1.80;;;1.70;;
5414;SDS011;2730;51.512;7.504;2023-02-28T10:10:33;1.83;;;1.70;;
5414;SDS011;2730;51.512;7.504;2023-02-28T10:13:04;2.35;;;1.80;;
5414;SDS011;2730;51.512;7.504;2023-02-28T10:15:37;1.70;;;1.60;;
5414;SDS011;2730;51.512;7.504;2023-02-28T10:18:09;4.85;;;1.85;;
5414;SDS011;2730;51.512;7.504;2023-02-28T10:20:40;2.00;;;1.85;;
5414;SDS011;2730;51.512;7.504;2023-02-28T10:23:11;2.45;;;1.50;;
5414;SDS011;2730;51.512;7.504;2023-02-28T10:25:44;2.13;;;1.42;;
5414;SDS011;2730;51.512;7.504;2023-02-28T10:28:16;3.25;;;1.65;;
5414;SDS011;2730;51.512;7.504;2023-02-28T10:30:45;1.80;;;1.70;;
5414;SDS011;2730;51.512;7.504;2023-02-28T10:33:19;2.03;;;1.80;;
5414;SDS011;2730;51.512;7.504;2023-02-28T10:35:49;1.88;;;1.50;;
5414;SDS011;2730;51.512;7.504;2023-02-28T10:38:17;1.90;;;1.80;;
5414;SDS011;2730;51.512;7.504;2023-02-28T10:40:46;2.08;;;1.40;;
5414;SDS011;2730;51.512;7.504;2023-02-28T10:43:20;1.73;;;1.30;;
5414;SDS011;2730;51.512;7.504;2023-02-28T10:45:53;5.20;;;1.65;;
5414;SDS011;2730;51.512;7.504;2023-02-28T10:48:35;1.77;;;1.67;;
5414;SDS011;2730;51.512;7.504;2023-02-28T10:51:04;2.53;;;1.75;;
5414;SDS011;2730;51.512;7.504;2023-02-28T10:53:37;1.73;;;1.40;;
5414;SDS011;2730;51.512;7.504;2023-02-28T10:56:14;3.58;;;1.55;;
5414;SDS011;2730;51.512;7.504;2023-02-28T10:58:48;2.65;;;1.70;;
5414;SDS011;2730;51.512;7.504;2023-02-28T11:01:17;2.15;;;1.98;;
5414;SDS011;2730;51.512;7.504;2023-02-28T11:03:47;1.73;;;1.50;;
5414;SDS011;2730;51.512;7.504;2023-02-28T11:06:15;1.67;;;1.58;;
5414;SDS011;2730;51.512;7.504;2023-02-28T11:08:45;2.28;;;1.48;;
5414;SDS011;2730;51.512;7.504;2023-02-28T11:11:15;1.40;;;1.30;;
5414;SDS011;2730;51.512;7.504;2023-02-28T11:13:43;2.10;;;1.50;;
5414;SDS011;2730;51.512;7.504;2023-02-28T11:16:12;2.05;;;1.83;;
5414;SDS011;2730;51.512;7.504;2023-02-28T11:18:41;2.78;;;1.73;;
5414;SDS011;2730;51.512;7.504;2023-02-28T11:21:15;1.73;;;1.63;;
5414;SDS011;2730;51.512;7.504;2023-02-28T11:23:45;1.80;;;1.70;;
5414;SDS011;2730;51.512;7.504;2023-02-28T11:26:15;2.95;;;1.70;;
5414;SDS011;2730;51.512;7.504;2023-02-28T11:29:05;1.55;;;1.45;;
5414;SDS011;2730;51.512;7.504;2023-02-28T11:31:37;2.00;;;1.80;;
5414;SDS011;2730;51.512;7.504;2023-02-28T11:36:51;1.60;;;1.48;;
5414;SDS011;2730;51.512;7.504;2023-02-28T11:39:19;2.40;;;2.00;;
5414;SDS011;2730;51.512;7.504;2023-02-28T11:41:54;2.55;;;1.50;;
5414;SDS011;2730;51.512;7.504;2023-02-28T11:44:55;1.98;;;1.88;;
5414;SDS011;2730;51.512;7.504;2023-02-28T11:47:42;1.70;;;1.60;;
5414;SDS011;2730;51.512;7.504;2023-02-28T11:50:21;3.15;;;1.40;;
5414;SDS011;2730;51.512;7.504;2023-02-28T11:53:14;4.57;;;1.70;;
5414;SDS011;2730;51.512;7.504;2023-02-28T11:55:48;1.95;;;1.83;;
5414;SDS011;2730;51.512;7.504;2023-02-28T11:58:24;2.25;;;1.60;;
5414;SDS011;2730;51.512;7.504;2023-02-28T12:01:08;2.78;;;1.58;;
5414;SDS011;2730;51.512;7.504;2023-02-28T12:03:49;1.75;;;1.65;;
5414;SDS011;2730;51.512;7.504;2023-02-28T12:06:25;1.98;;;1.30;;
5414;SDS011;2730;51.512;7.504;2023-02-28T12:09:02;1.45;;;1.35;;
5414;SDS011;2730;51.512;7.504;2023-02-28T12:11:45;1.50;;;1.40;;
5414;SDS011;2730;51.512;7.504;2023-02-28T12:17:16;1.73;;;1.17;;
5414;SDS011;2730;51.512;7.504;2023-02-28T12:19:52;3.00;;;2.80;;
5414;SDS011;2730;51.512;7.504;2023-02-28T12:22:28;1.50;;;1.40;;
5414;SDS011;2730;51.512;7.504;2023-02-28T12:25:13;3.17;;;2.25;;
5414;SDS011;2730;51.512;7.504;2023-02-28T12:27:57;2.55;;;2.17;;
5414;SDS011;2730;51.512;7.504;2023-02-28T12:30:25;2.15;;;1.95;;
5414;SDS011;2730;51.512;7.504;2023-02-28T12:32:55;1.77;;;1.67;;
5414;SDS011;2730;51.512;7.504;2023-02-28T12:35:28;1.52;;;1.42;;
5414;SDS011;2730;51.512;7.504;2023-02-28T12:38:02;1.77;;;1.67;;
5414;SDS011;2730;51.512;7.504;2023-02-28T12:40:34;2.40;;;1.95;;
5414;SDS011;2730;51.512;7.504;2023-02-28T12:43:09;2.10;;;2.00;;
5414;SDS011;2730;51.512;7.504;2023-02-28T12:45:40;3.15;;;2.08;;
5414;SDS011;2730;51.512;7.504;2023-02-28T12:48:13;4.30;;;2.15;;
5414;SDS011;2730;51.512;7.504;2023-02-28T12:50:44;3.10;;;2.90;;
5414;SDS011;2730;51.512;7.504;2023-02-28T12:53:15;2.65;;;2.45;;
5414;SDS011;2730;51.512;7.504;2023-02-28T12:55:52;4.10;;;2.20;;
5414;SDS011;2730;51.512;7.504;2023-02-28T12:58:30;2.42;;;2.03;;
5414;SDS011;2730;51.512;7.504;2023-02-28T13:01:11;5.35;;;2.47;;
5414;SDS011;2730;51.512;7.504;2023-02-28T13:06:57;1.95;;;1.50;;
5414;SDS011;2730;51.512;7.504;2023-02-28T13:09:34;2.97;;;2.10;;
5414;SDS011;2730;51.512;7.504;2023-02-28T13:12:04;2.30;;;2.10;;
5414;SDS011;2730;51.512;7.504;2023-02-28T13:14:39;2.67;;;2.15;;
5414;SDS011;2730;51.512;7.504;2023-02-28T13:17:10;2.13;;;1.95;;
5414;SDS011;2730;51.512;7.504;2023-02-28T13:19:39;2.30;;;2.10;;
5414;SDS011;2730;51.512;7.504;2023-02-28T13:22:16;3.40;;;2.38;;
5414;SDS011;2730;51.512;7.504;2023-02-28T13:24:45;5.13;;;2.28;;
5414;SDS011;2730;51.512;7.504;2023-02-28T13:33:26;1.98;;;1.80;;
5414;SDS011;2730;51.512;7.504;2023-02-28T13:36:07;2.05;;;1.77;;
5414;SDS011;2730;51.512;7.504;2023-02-28T13:38:36;2.50;;;1.90;;
5414;SDS011;2730;51.512;7.504;2023-02-28T13:44:09;2.58;;;1.90;;
5414;SDS011;2730;51.512;7.504;2023-02-28T13:49:47;2.40;;;2.20;;
5414;SDS011;2730;51.512;7.504;2023-02-28T13:52:16;2.55;;;2.10;;
5414;SDS011;2730;51.512;7.504;2023-02-28T13:57:57;4.85;;;2.65;;
5414;SDS011;2730;51.512;7.504;2023-02-28T14:00:42;2.72;;;2.53;;
5414;SDS011;2730;51.512;7.504;2023-02-28T14:03:26;4.70;;;2.58;;
5414;SDS011;2730;51.512;7.504;2023-02-28T14:06:08;2.97;;;2.28;;
5414;SDS011;2730;51.512;7.504;2023-02-28T14:08:45;2.88;;;2.42;;
5414;SDS011;2730;51.512;7.504;2023-02-28T14:11:27;3.58;;;2.65;;
5414;SDS011;2730;51.512;7.504;2023-02-28T14:13:58;2.53;;;2.20;;
5414;SDS011;2730;51.512;7.504;2023-02-28T14:16:27;3.03;;;2.65;;
5414;SDS011;2730;51.512;7.504;2023-02-28T14:19:05;2.70;;;2.50;;
5414;SDS011;2730;51.512;7.504;2023-02-28T14:21:39;4.63;;;2.60;;
5414;SDS011;2730;51.512;7.504;2023-02-28T14:24:22;2.67;;;2.42;;
5414;SDS011;2730;51.512;7.504;2023-02-28T14:27:17;3.13;;;2.40;;
5414;SDS011;2730;51.512;7.504;2023-02-28T14:30:03;4.85;;;2.60;;
5414;SDS011;2730;51.512;7.504;2023-02-28T14:33:00;2.35;;;2.10;;
5414;SDS011;2730;51.512;7.504;2023-02-28T14:35:43;3.03;;;2.80;;
5414;SDS011;2730;51.512;7.504;2023-02-28T14:38:19;1.88;;;1.70;;
5414;SDS011;2730;51.512;7.504;2023-02-28T14:40:51;4.60;;;3.00;;
5414;SDS011;2730;51.512;7.504;2023-02-28T14:43:21;3.58;;;2.60;;
5414;SDS011;2730;51.512;7.504;2023-02-28T14:45:50;2.92;;;2.60;;
5414;SDS011;2730;51.512;7.504;2023-02-28T14:48:21;3.38;;;2.38;;
5414;SDS011;2730;51.512;7.504;2023-02-28T14:50:51;4.03;;;2.90;;
5414;SDS011;2730;51.512;7.504;2023-02-28T14:53:21;2.60;;;2.35;;
5414;SDS011;2730;51.512;7.504;2023-02-28T14:55:50;2.50;;;2.30;;
5414;SDS011;2730;51.512;7.504;2023-02-28T14:58:21;3.35;;;3.05;;
5414;SDS011;2730;51.512;7.504;2023-02-28T15:00:50;2.97;;;2.78;;
5414;SDS011;2730;51.512;7.504;2023-02-28T15:03:19;2.08;;;1.98;;
5414;SDS011;2730;51.512;7.504;2023-02-28T15:05:52;2.75;;;2.22;;
5414;SDS011;2730;51.512;7.504;2023-02-28T15:08:20;4.03;;;2.00;;
5414;SDS011;2730;51.512;7.504;2023-02-28T15:10:50;2.45;;;2.25;;
5414;SDS011;2730;51.512;7.504;2023-02-28T15:13:20;2.72;;;2.53;;
5414;SDS011;2730;51.512;7.504;2023-02-28T15:15:48;3.53;;;2.10;;
5414;SDS011;2730;51.512;7.504;2023-02-28T15:18:26;2.67;;;2.35;;
5414;SDS011;2730;51.512;7.504;2023-02-28T15:20:57;3.05;;;2.00;;
5414;SDS011;2730;51.512;7.504;2023-02-28T15:23:28;2.90;;;2.25;;
5414;SDS011;2730;51.512;7.504;2023-02-28T15:25:55;3.15;;;2.22;;
5414;SDS011;2730;51.512;7.504;2023-02-28T15:28:23;3.22;;;2.92;;
5414;SDS011;2730;51.512;7.504;2023-02-28T15:30:51;3.30;;;2.80;;
5414;SDS011;2730;51.512;7.504;2023-02-28T15:33:20;3.35;;;2.97;;
5414;SDS011;2730;51.512;7.504;2023-02-28T15:35:51;2.58;;;2.30;;
5414;SDS011;2730;51.512;7.504;2023-02-28T15:38:28;3.50;;;3.00;;
5414;SDS011;2730;51.512;7.504;2023-02-28T15:40:56;3.95;;;2.40;;
5414;SDS011;2730;51.512;7.504;2023-02-28T15:43:25;2.40;;;2.28;;
5414;SDS011;2730;51.512;7.504;2023-02-28T15:45:55;3.92;;;2.50;;
5414;SDS011;2730;51.512;7.504;2023-02-28T15:48:27;3.95;;;2.10;;
5414;SDS011;2730;51.512;7.504;2023-02-28T15:51:01;3.13;;;2.63;;
5414;SDS011;2730;51.512;7.504;2023-02-28T15:53:32;4.07;;;2.85;;
5414;SDS011;2730;51.512;7.504;2023-02-28T15:56:02;3.15;;;2.78;;
5414;SDS011;2730;51.512;7.504;2023-02-28T15:58:32;7.25;;;2.70;;
5414;SDS011;2730;51.512;7.504;2023-02-28T16:01:04;1.88;;;1.77;;
5414;SDS011;2730;51.512;7.504;2023-02-28T16:03:40;3.97;;;2.40;;
5414;SDS011;2730;51.512;7.504;2023-02-28T16:06:12;2.72;;;2.53;;
5414;SDS011;2730;51.512;7.504;2023-02-28T16:09:08;4.93;;;2.30;;
5414;SDS011;2730;51.512;7.504;2023-02-28T16:11:38;4.28;;;2.67;;